Cap Maleas — P3ZA9 — position and weather

sailwx.info

Track history (hours):
 
Tides and Currents Weather Stations Pressure Air Temp Water Temp Dewpoint Dewpoint Depression Visibility Wind Speed Wind Dir Waves Ship Positions

Cap Maleas

Last reported at 2017-Dec-01 08:16 UTC. Time now 2017-Dec-12 04:36 UTC.
Position N 09°13' W 013°50'.
Warning: this ship's position is 10 days out of date.

Length 176 m; draft 9.8 m.

Type: Cargo ship. MMSI: 209309000.

Date/timePositionNaut miles runAvg speedWind from/ knotsBaromVisibWave heightAir tempDewpointWater temp
2017-Dec-01 08:16N 09°13' W 013°50'518.1
2017-Dec-01 08:01N 09°17' W 013°49'917.6
2017-Dec-01 07:31N 09°24' W 013°43'612.1
2017-Dec-01 07:00N 09°30' W 013°44'1 1.3
2017-Dec-01 06:30N 09°31' W 013°43'0 0.0
2017-Dec-01 06:00N 09°31' W 013°43'0 0.0
2017-Dec-01 05:30N 09°31' W 013°43'0 0.0
2017-Dec-01 05:00N 09°31' W 013°43'0 0.0
2017-Dec-01 04:30N 09°31' W 013°43'0 0.0
2017-Dec-01 04:00N 09°31' W 013°43'0 0.0
2017-Dec-01 03:30N 09°31' W 013°43'0 0.0
2017-Dec-01 03:00N 09°31' W 013°43'0 0.0
2017-Dec-01 02:30N 09°31' W 013°43'0 0.0
2017-Dec-01 02:00N 09°31' W 013°43'0 0.0
2017-Dec-01 01:30N 09°31' W 013°43'0 0.0
2017-Dec-01 01:00N 09°31' W 013°43'0 0.0
2017-Dec-01 00:30N 09°31' W 013°43'0 0.0
2017-Dec-01 00:00N 09°31' W 013°43'0 0.0
2017-Nov-30 23:30N 09°31' W 013°43'0 0.0
2017-Nov-30 23:00N 09°31' W 013°43'0 0.0
2017-Nov-30 22:30N 09°31' W 013°43'0 0.0
2017-Nov-30 22:00N 09°31' W 013°43'0 0.0
2017-Nov-30 21:30N 09°31' W 013°43'0 0.0
2017-Nov-30 21:00N 09°31' W 013°43'0 0.0
2017-Nov-30 20:30N 09°31' W 013°43'0 0.0
2017-Nov-30 20:00N 09°31' W 013°43'0 0.0
2017-Nov-30 19:30N 09°31' W 013°43'0 0.0
2017-Nov-30 19:00N 09°31' W 013°43'0 0.0
2017-Nov-30 18:30N 09°31' W 013°43'0 0.0
2017-Nov-30 18:00N 09°31' W 013°43'0 0.0
2017-Nov-30 17:30N 09°31' W 013°43'0 0.0
2017-Nov-30 17:00N 09°31' W 013°43'0 0.0
2017-Nov-30 16:30N 09°31' W 013°43'0 0.0
2017-Nov-30 16:00N 09°31' W 013°43'0 0.0
2017-Nov-30 15:30N 09°31' W 013°43'0 0.0
2017-Nov-30 15:00N 09°31' W 013°43'0 0.0
2017-Nov-30 14:30N 09°31' W 013°43'0 0.0
2017-Nov-30 14:00N 09°31' W 013°43'0 0.0
2017-Nov-30 13:30N 09°31' W 013°43'0 0.0
2017-Nov-30 13:00N 09°31' W 013°43'0 0.0
2017-Nov-30 12:30N 09°31' W 013°43'0 0.0
2017-Nov-30 12:00N 09°31' W 013°43'0 0.0
2017-Nov-30 11:30N 09°31' W 013°43'0 0.0
2017-Nov-30 10:51N 09°31' W 013°43'0 0.0
2017-Nov-30 10:30N 09°31' W 013°43'0 0.0
2017-Nov-30 10:00N 09°31' W 013°43'0 0.0
2017-Nov-30 09:30N 09°31' W 013°43'0 0.0
2017-Nov-30 09:00N 09°31' W 013°43'0 0.0
2017-Nov-30 08:30N 09°31' W 013°43'0 0.1
2017-Nov-30 08:00N 09°31' W 013°43'0 0.0
2017-Nov-30 07:30N 09°31' W 013°43'0 0.0
2017-Nov-30 07:00N 09°31' W 013°43'0 0.0
2017-Nov-30 06:30N 09°31' W 013°43'0 0.6
2017-Nov-30 06:00N 09°30' W 013°44'3 5.5
2017-Nov-30 05:30N 09°28' W 013°43'1 1.7
2017-Nov-30 05:00N 09°27' W 013°43'5 9.6
2017-Nov-30 04:30N 09°22' W 013°45'510.9
2017-Nov-30 04:00N 09°19' W 013°49'612.2
2017-Nov-30 03:30N 09°19' W 013°55'712.7
2017-Nov-30 02:59N 09°20' W 014°02'  
2017-Nov-24 17:46N 34°39' W 007°37'414.3
2017-Nov-24 17:28N 34°42' W 007°33'714.3
2017-Nov-24 16:59N 34°47' W 007°27'713.9
2017-Nov-24 16:30N 34°51' W 007°21'714.3
2017-Nov-24 16:00N 34°56' W 007°14'714.1
2017-Nov-24 15:30N 35°01' W 007°08'713.1
2017-Nov-24 15:00N 35°06' W 007°02'713.5
2017-Nov-24 14:30N 35°10' W 006°56'713.8
2017-Nov-24 13:58N 35°15' W 006°49'612.2
2017-Nov-24 13:26N 35°19' W 006°44'73 2.8
2017-Nov-23 11:20N 35°59' W 005°28'512.1
2017-Nov-23 10:58N 36°00' W 005°23'613.3
2017-Nov-23 10:30N 36°04' W 005°17'  
Track history (hours):
 
Tides and Currents Weather Stations Pressure Air Temp Water Temp Dewpoint Dewpoint Depression Visibility Wind Speed Wind Dir Waves Ship Positions

Cap Maleas

Last reported at 2017-Dec-01 08:16 UTC. Time now 2017-Dec-12 04:36 UTC.
Position N 09°13' W 013°50'.
Warning: this ship's position is 10 days out of date.

Length 176 m; draft 9.8 m.

Type: Cargo ship. MMSI: 209309000.

Date/timePositionNaut miles runAvg speedWind from/ knotsBaromVisibWave heightAir tempDewpointWater temp
2017-Dec-01 08:16N 09°13' W 013°50'518.1
2017-Dec-01 08:01N 09°17' W 013°49'917.6
2017-Dec-01 07:31N 09°24' W 013°43'612.1
2017-Dec-01 07:00N 09°30' W 013°44'1 1.3
2017-Dec-01 06:30N 09°31' W 013°43'0 0.0
2017-Dec-01 06:00N 09°31' W 013°43'0 0.0
2017-Dec-01 05:30N 09°31' W 013°43'0 0.0
2017-Dec-01 05:00N 09°31' W 013°43'0 0.0
2017-Dec-01 04:30N 09°31' W 013°43'0 0.0
2017-Dec-01 04:00N 09°31' W 013°43'0 0.0
2017-Dec-01 03:30N 09°31' W 013°43'0 0.0
2017-Dec-01 03:00N 09°31' W 013°43'0 0.0
2017-Dec-01 02:30N 09°31' W 013°43'0 0.0
2017-Dec-01 02:00N 09°31' W 013°43'0 0.0
2017-Dec-01 01:30N 09°31' W 013°43'0 0.0
2017-Dec-01 01:00N 09°31' W 013°43'0 0.0
2017-Dec-01 00:30N 09°31' W 013°43'0 0.0
2017-Dec-01 00:00N 09°31' W 013°43'0 0.0
2017-Nov-30 23:30N 09°31' W 013°43'0 0.0
2017-Nov-30 23:00N 09°31' W 013°43'0 0.0
2017-Nov-30 22:30N 09°31' W 013°43'0 0.0
2017-Nov-30 22:00N 09°31' W 013°43'0 0.0
2017-Nov-30 21:30N 09°31' W 013°43'0 0.0
2017-Nov-30 21:00N 09°31' W 013°43'0 0.0
2017-Nov-30 20:30N 09°31' W 013°43'0 0.0
2017-Nov-30 20:00N 09°31' W 013°43'0 0.0
2017-Nov-30 19:30N 09°31' W 013°43'0 0.0
2017-Nov-30 19:00N 09°31' W 013°43'0 0.0
2017-Nov-30 18:30N 09°31' W 013°43'0 0.0
2017-Nov-30 18:00N 09°31' W 013°43'0 0.0
2017-Nov-30 17:30N 09°31' W 013°43'0 0.0
2017-Nov-30 17:00N 09°31' W 013°43'0 0.0
2017-Nov-30 16:30N 09°31' W 013°43'0 0.0
2017-Nov-30 16:00N 09°31' W 013°43'0 0.0
2017-Nov-30 15:30N 09°31' W 013°43'0 0.0
2017-Nov-30 15:00N 09°31' W 013°43'0 0.0
2017-Nov-30 14:30N 09°31' W 013°43'0 0.0
2017-Nov-30 14:00N 09°31' W 013°43'0 0.0
2017-Nov-30 13:30N 09°31' W 013°43'0 0.0
2017-Nov-30 13:00N 09°31' W 013°43'0 0.0
2017-Nov-30 12:30N 09°31' W 013°43'0 0.0
2017-Nov-30 12:00N 09°31' W 013°43'0 0.0
2017-Nov-30 11:30N 09°31' W 013°43'0 0.0
2017-Nov-30 10:51N 09°31' W 013°43'0 0.0
2017-Nov-30 10:30N 09°31' W 013°43'0 0.0
2017-Nov-30 10:00N 09°31' W 013°43'0 0.0
2017-Nov-30 09:30N 09°31' W 013°43'0 0.0
2017-Nov-30 09:00N 09°31' W 013°43'0 0.0
2017-Nov-30 08:30N 09°31' W 013°43'0 0.1
2017-Nov-30 08:00N 09°31' W 013°43'0 0.0
2017-Nov-30 07:30N 09°31' W 013°43'0 0.0
2017-Nov-30 07:00N 09°31' W 013°43'0 0.0
2017-Nov-30 06:30N 09°31' W 013°43'0 0.6
2017-Nov-30 06:00N 09°30' W 013°44'3 5.5
2017-Nov-30 05:30N 09°28' W 013°43'1 1.7
2017-Nov-30 05:00N 09°27' W 013°43'5 9.6
2017-Nov-30 04:30N 09°22' W 013°45'510.9
2017-Nov-30 04:00N 09°19' W 013°49'612.2
2017-Nov-30 03:30N 09°19' W 013°55'712.7
2017-Nov-30 02:59N 09°20' W 014°02'  
2017-Nov-24 17:46N 34°39' W 007°37'414.3
2017-Nov-24 17:28N 34°42' W 007°33'714.3
2017-Nov-24 16:59N 34°47' W 007°27'713.9
2017-Nov-24 16:30N 34°51' W 007°21'714.3
2017-Nov-24 16:00N 34°56' W 007°14'714.1
2017-Nov-24 15:30N 35°01' W 007°08'713.1
2017-Nov-24 15:00N 35°06' W 007°02'713.5
2017-Nov-24 14:30N 35°10' W 006°56'713.8
2017-Nov-24 13:58N 35°15' W 006°49'612.2
2017-Nov-24 13:26N 35°19' W 006°44'73 2.8
2017-Nov-23 11:20N 35°59' W 005°28'512.1
2017-Nov-23 10:58N 36°00' W 005°23'613.3
2017-Nov-23 10:30N 36°04' W 005°17'  

Dump ship's entire track history